sensor_id;sensor_type;location;lat;lon;timestamp;pressure;altitude;pressure_sealevel;temperature
38114;BMP180;23926;53.222;6.354;2023-01-29T00:01:50;102669.00;;;7.20
38114;BMP180;23926;53.222;6.354;2023-01-29T00:04:15;102668.00;;;7.20
38114;BMP180;23926;53.222;6.354;2023-01-29T00:06:41;102666.00;;;7.20
38114;BMP180;23926;53.222;6.354;2023-01-29T00:09:06;102668.00;;;7.20
38114;BMP180;23926;53.222;6.354;2023-01-29T00:11:31;102662.00;;;7.20
38114;BMP180;23926;53.222;6.354;2023-01-29T00:13:57;102664.00;;;7.20
38114;BMP180;23926;53.222;6.354;2023-01-29T00:16:22;102668.00;;;7.20
38114;BMP180;23926;53.222;6.354;2023-01-29T00:18:48;102659.00;;;7.20
38114;BMP180;23926;53.222;6.354;2023-01-29T00:21:14;102665.00;;;7.20
38114;BMP180;23926;53.222;6.354;2023-01-29T00:23:39;102663.00;;;7.30
38114;BMP180;23926;53.222;6.354;2023-01-29T00:26:05;102663.00;;;7.30
38114;BMP180;23926;53.222;6.354;2023-01-29T00:28:30;102652.00;;;7.30
38114;BMP180;23926;53.222;6.354;2023-01-29T00:30:56;102651.00;;;7.40
38114;BMP180;23926;53.222;6.354;2023-01-29T00:33:21;102649.00;;;7.40
38114;BMP180;23926;53.222;6.354;2023-01-29T00:35:46;102651.00;;;7.40
38114;BMP180;23926;53.222;6.354;2023-01-29T00:38:11;102643.00;;;7.40
38114;BMP180;23926;53.222;6.354;2023-01-29T00:40:37;102627.00;;;7.40
38114;BMP180;23926;53.222;6.354;2023-01-29T00:43:21;102630.00;;;7.40
38114;BMP180;23926;53.222;6.354;2023-01-29T00:46:05;102633.00;;;7.40
38114;BMP180;23926;53.222;6.354;2023-01-29T00:48:31;102635.00;;;7.40
38114;BMP180;23926;53.222;6.354;2023-01-29T00:50:57;102621.00;;;7.40
38114;BMP180;23926;53.222;6.354;2023-01-29T00:53:22;102643.00;;;7.50
38114;BMP180;23926;53.222;6.354;2023-01-29T00:55:47;102614.00;;;7.50
38114;BMP180;23926;53.222;6.354;2023-01-29T00:58:12;102618.00;;;7.50
38114;BMP180;23926;53.222;6.354;2023-01-29T01:00:38;102614.00;;;7.50
38114;BMP180;23926;53.222;6.354;2023-01-29T01:03:03;102613.00;;;7.40
38114;BMP180;23926;53.222;6.354;2023-01-29T01:05:31;102609.00;;;7.40
38114;BMP180;23926;53.222;6.354;2023-01-29T01:07:57;102613.00;;;7.30
38114;BMP180;23926;53.222;6.354;2023-01-29T01:10:27;102617.00;;;7.30
38114;BMP180;23926;53.222;6.354;2023-01-29T01:12:54;102616.00;;;7.30
38114;BMP180;23926;53.222;6.354;2023-01-29T01:15:20;102618.00;;;7.40
38114;BMP180;23926;53.222;6.354;2023-01-29T01:17:45;102616.00;;;7.40
38114;BMP180;23926;53.222;6.354;2023-01-29T01:20:13;102606.00;;;7.40
38114;BMP180;23926;53.222;6.354;2023-01-29T01:22:38;102618.00;;;7.50
38114;BMP180;23926;53.222;6.354;2023-01-29T01:25:04;102615.00;;;7.40
38114;BMP180;23926;53.222;6.354;2023-01-29T01:27:29;102626.00;;;7.40
38114;BMP180;23926;53.222;6.354;2023-01-29T01:29:54;102621.00;;;7.40
38114;BMP180;23926;53.222;6.354;2023-01-29T01:32:20;102630.00;;;7.40
38114;BMP180;23926;53.222;6.354;2023-01-29T01:34:45;102617.00;;;7.30
38114;BMP180;23926;53.222;6.354;2023-01-29T01:37:10;102621.00;;;7.40
38114;BMP180;23926;53.222;6.354;2023-01-29T01:39:35;102624.00;;;7.40
38114;BMP180;23926;53.222;6.354;2023-01-29T01:42:01;102622.00;;;7.50
38114;BMP180;23926;53.222;6.354;2023-01-29T01:47:10;102623.00;;;7.40
38114;BMP180;23926;53.222;6.354;2023-01-29T01:49:35;102626.00;;;7.40
38114;BMP180;23926;53.222;6.354;2023-01-29T01:52:00;102630.00;;;7.40
38114;BMP180;23926;53.222;6.354;2023-01-29T01:54:26;102625.00;;;7.40
38114;BMP180;23926;53.222;6.354;2023-01-29T01:56:55;102625.00;;;7.30
38114;BMP180;23926;53.222;6.354;2023-01-29T01:59:29;102626.00;;;7.30
38114;BMP180;23926;53.222;6.354;2023-01-29T02:01:56;102622.00;;;7.30
38114;BMP180;23926;53.222;6.354;2023-01-29T02:04:22;102623.00;;;7.30
38114;BMP180;23926;53.222;6.354;2023-01-29T02:07:08;102621.00;;;7.30
38114;BMP180;23926;53.222;6.354;2023-01-29T02:09:56;102634.00;;;7.30
38114;BMP180;23926;53.222;6.354;2023-01-29T02:12:24;102628.00;;;7.30
38114;BMP180;23926;53.222;6.354;2023-01-29T02:14:50;102631.00;;;7.30
38114;BMP180;23926;53.222;6.354;2023-01-29T02:17:16;102630.00;;;7.30
38114;BMP180;23926;53.222;6.354;2023-01-29T02:22:50;102630.00;;;7.30
38114;BMP180;23926;53.222;6.354;2023-01-29T02:33:12;102602.00;;;7.20
38114;BMP180;23926;53.222;6.354;2023-01-29T02:35:41;102604.00;;;7.30
38114;BMP180;23926;53.222;6.354;2023-01-29T02:50:25;102582.00;;;7.40
38114;BMP180;23926;53.222;6.354;2023-01-29T02:52:58;102568.00;;;7.40
38114;BMP180;23926;53.222;6.354;2023-01-29T02:57:51;102549.00;;;7.30
38114;BMP180;23926;53.222;6.354;2023-01-29T03:00:31;102544.00;;;7.30
38114;BMP180;23926;53.222;6.354;2023-01-29T03:05:36;102534.00;;;7.10
38114;BMP180;23926;53.222;6.354;2023-01-29T03:08:07;102535.00;;;7.10
38114;BMP180;23926;53.222;6.354;2023-01-29T03:10:36;102519.00;;;7.10
38114;BMP180;23926;53.222;6.354;2023-01-29T03:13:12;102520.00;;;7.10
38114;BMP180;23926;53.222;6.354;2023-01-29T03:15:40;102516.00;;;7.10
38114;BMP180;23926;53.222;6.354;2023-01-29T03:18:12;102506.00;;;7.10
38114;BMP180;23926;53.222;6.354;2023-01-29T03:20:44;102518.00;;;7.00
38114;BMP180;23926;53.222;6.354;2023-01-29T03:23:20;102521.00;;;7.00
38114;BMP180;23926;53.222;6.354;2023-01-29T03:25:49;102508.00;;;7.00
38114;BMP180;23926;53.222;6.354;2023-01-29T03:28:34;102503.00;;;7.10
38114;BMP180;23926;53.222;6.354;2023-01-29T03:31:18;102498.00;;;7.20
38114;BMP180;23926;53.222;6.354;2023-01-29T03:34:06;102503.00;;;7.10
38114;BMP180;23926;53.222;6.354;2023-01-29T03:36:36;102498.00;;;7.00
38114;BMP180;23926;53.222;6.354;2023-01-29T03:39:09;102499.00;;;7.10
38114;BMP180;23926;53.222;6.354;2023-01-29T03:41:37;102508.00;;;7.20
38114;BMP180;23926;53.222;6.354;2023-01-29T03:44:14;102511.00;;;7.10
38114;BMP180;23926;53.222;6.354;2023-01-29T03:52:28;102515.00;;;7.10
38114;BMP180;23926;53.222;6.354;2023-01-29T03:57:45;102502.00;;;7.20
38114;BMP180;23926;53.222;6.354;2023-01-29T04:02:51;102500.00;;;7.20
38114;BMP180;23926;53.222;6.354;2023-01-29T04:05:20;102502.00;;;7.20
38114;BMP180;23926;53.222;6.354;2023-01-29T04:07:46;102507.00;;;7.20
38114;BMP180;23926;53.222;6.354;2023-01-29T04:10:14;102513.00;;;7.30
38114;BMP180;23926;53.222;6.354;2023-01-29T04:12:45;102510.00;;;7.30
38114;BMP180;23926;53.222;6.354;2023-01-29T04:15:12;102518.00;;;7.30
38114;BMP180;23926;53.222;6.354;2023-01-29T04:17:42;102512.00;;;7.30
38114;BMP180;23926;53.222;6.354;2023-01-29T04:20:08;102505.00;;;7.30
38114;BMP180;23926;53.222;6.354;2023-01-29T04:22:34;102499.00;;;7.30
38114;BMP180;23926;53.222;6.354;2023-01-29T04:25:02;102492.00;;;7.30
38114;BMP180;23926;53.222;6.354;2023-01-29T04:27:55;102502.00;;;7.30
38114;BMP180;23926;53.222;6.354;2023-01-29T04:30:22;102492.00;;;7.40
38114;BMP180;23926;53.222;6.354;2023-01-29T04:32:56;102509.00;;;7.30
38114;BMP180;23926;53.222;6.354;2023-01-29T04:38:11;102507.00;;;7.30
38114;BMP180;23926;53.222;6.354;2023-01-29T04:43:25;102514.00;;;7.20
38114;BMP180;23926;53.222;6.354;2023-01-29T04:48:32;102520.00;;;7.30
38114;BMP180;23926;53.222;6.354;2023-01-29T04:56:07;102509.00;;;7.30
38114;BMP180;23926;53.222;6.354;2023-01-29T04:58:38;102497.00;;;7.30
38114;BMP180;23926;53.222;6.354;2023-01-29T05:01:06;102485.00;;;7.30
38114;BMP180;23926;53.222;6.354;2023-01-29T05:03:32;102482.00;;;7.20
38114;BMP180;23926;53.222;6.354;2023-01-29T05:05:59;102478.00;;;7.30
38114;BMP180;23926;53.222;6.354;2023-01-29T05:08:24;102471.00;;;7.20
38114;BMP180;23926;53.222;6.354;2023-01-29T05:10:51;102464.00;;;7.30
38114;BMP180;23926;53.222;6.354;2023-01-29T05:13:18;102459.00;;;7.30
38114;BMP180;23926;53.222;6.354;2023-01-29T05:15:49;102453.00;;;7.30
38114;BMP180;23926;53.222;6.354;2023-01-29T05:18:16;102451.00;;;7.30
38114;BMP180;23926;53.222;6.354;2023-01-29T05:20:41;102446.00;;;7.30
38114;BMP180;23926;53.222;6.354;2023-01-29T05:23:17;102442.00;;;7.30
38114;BMP180;23926;53.222;6.354;2023-01-29T05:25:43;102456.00;;;7.20
38114;BMP180;23926;53.222;6.354;2023-01-29T05:28:09;102446.00;;;7.30
38114;BMP180;23926;53.222;6.354;2023-01-29T05:30:45;102439.00;;;7.30
38114;BMP180;23926;53.222;6.354;2023-01-29T05:33:12;102433.00;;;7.40
38114;BMP180;23926;53.222;6.354;2023-01-29T05:35:38;102444.00;;;7.40
38114;BMP180;23926;53.222;6.354;2023-01-29T05:38:03;102439.00;;;7.40
38114;BMP180;23926;53.222;6.354;2023-01-29T05:40:28;102436.00;;;7.40
38114;BMP180;23926;53.222;6.354;2023-01-29T05:42:53;102427.00;;;7.40
38114;BMP180;23926;53.222;6.354;2023-01-29T05:45:19;102415.00;;;7.50
38114;BMP180;23926;53.222;6.354;2023-01-29T05:47:45;102416.00;;;7.40
38114;BMP180;23926;53.222;6.354;2023-01-29T05:50:11;102405.00;;;7.50
38114;BMP180;23926;53.222;6.354;2023-01-29T05:52:36;102409.00;;;7.50
38114;BMP180;23926;53.222;6.354;2023-01-29T05:55:02;102392.00;;;7.50
38114;BMP180;23926;53.222;6.354;2023-01-29T05:57:27;102391.00;;;7.50
38114;BMP180;23926;53.222;6.354;2023-01-29T05:59:53;102399.00;;;7.60
38114;BMP180;23926;53.222;6.354;2023-01-29T06:02:18;102388.00;;;7.50
38114;BMP180;23926;53.222;6.354;2023-01-29T06:04:43;102397.00;;;7.50
38114;BMP180;23926;53.222;6.354;2023-01-29T06:07:08;102404.00;;;7.50
38114;BMP180;23926;53.222;6.354;2023-01-29T06:09:34;102395.00;;;7.60
38114;BMP180;23926;53.222;6.354;2023-01-29T06:11:59;102393.00;;;7.60
38114;BMP180;23926;53.222;6.354;2023-01-29T06:14:24;102398.00;;;7.60
38114;BMP180;23926;53.222;6.354;2023-01-29T06:16:50;102394.00;;;7.60
38114;BMP180;23926;53.222;6.354;2023-01-29T06:19:15;102394.00;;;7.60
38114;BMP180;23926;53.222;6.354;2023-01-29T06:21:42;102402.00;;;7.60
38114;BMP180;23926;53.222;6.354;2023-01-29T06:24:07;102402.00;;;7.60
38114;BMP180;23926;53.222;6.354;2023-01-29T06:26:32;102396.00;;;7.60
38114;BMP180;23926;53.222;6.354;2023-01-29T06:28:58;102397.00;;;7.60
38114;BMP180;23926;53.222;6.354;2023-01-29T06:31:23;102393.00;;;7.60
38114;BMP180;23926;53.222;6.354;2023-01-29T06:33:48;102370.00;;;7.60
38114;BMP180;23926;53.222;6.354;2023-01-29T06:36:14;102387.00;;;7.60
38114;BMP180;23926;53.222;6.354;2023-01-29T06:38:39;102369.00;;;7.60
38114;BMP180;23926;53.222;6.354;2023-01-29T06:41:11;102383.00;;;7.60
38114;BMP180;23926;53.222;6.354;2023-01-29T06:43:37;102389.00;;;7.60
38114;BMP180;23926;53.222;6.354;2023-01-29T06:46:02;102390.00;;;7.50
38114;BMP180;23926;53.222;6.354;2023-01-29T06:48:28;102404.00;;;7.50
38114;BMP180;23926;53.222;6.354;2023-01-29T06:50:53;102396.00;;;7.40
38114;BMP180;23926;53.222;6.354;2023-01-29T06:53:19;102385.00;;;7.50
38114;BMP180;23926;53.222;6.354;2023-01-29T06:55:51;102390.00;;;7.50
38114;BMP180;23926;53.222;6.354;2023-01-29T06:58:17;102388.00;;;7.40
38114;BMP180;23926;53.222;6.354;2023-01-29T07:00:42;102386.00;;;7.50
38114;BMP180;23926;53.222;6.354;2023-01-29T07:03:07;102376.00;;;7.40
38114;BMP180;23926;53.222;6.354;2023-01-29T07:05:33;102375.00;;;7.40
38114;BMP180;23926;53.222;6.354;2023-01-29T07:07:58;102373.00;;;7.40
38114;BMP180;23926;53.222;6.354;2023-01-29T07:10:23;102363.00;;;7.40
38114;BMP180;23926;53.222;6.354;2023-01-29T07:12:49;102366.00;;;7.30
38114;BMP180;23926;53.222;6.354;2023-01-29T07:15:14;102355.00;;;7.30
38114;BMP180;23926;53.222;6.354;2023-01-29T07:17:43;102351.00;;;7.20
38114;BMP180;23926;53.222;6.354;2023-01-29T07:20:09;102354.00;;;7.30
38114;BMP180;23926;53.222;6.354;2023-01-29T07:22:34;102356.00;;;7.20
38114;BMP180;23926;53.222;6.354;2023-01-29T07:24:59;102349.00;;;7.30
38114;BMP180;23926;53.222;6.354;2023-01-29T07:27:25;102363.00;;;7.20
38114;BMP180;23926;53.222;6.354;2023-01-29T07:29:51;102353.00;;;7.20
38114;BMP180;23926;53.222;6.354;2023-01-29T07:32:16;102350.00;;;7.30
38114;BMP180;23926;53.222;6.354;2023-01-29T07:34:42;102338.00;;;7.30
38114;BMP180;23926;53.222;6.354;2023-01-29T07:37:07;102343.00;;;7.30
38114;BMP180;23926;53.222;6.354;2023-01-29T07:39:32;102346.00;;;7.20
38114;BMP180;23926;53.222;6.354;2023-01-29T07:41:57;102346.00;;;7.20
38114;BMP180;23926;53.222;6.354;2023-01-29T07:44:23;102341.00;;;7.20
38114;BMP180;23926;53.222;6.354;2023-01-29T07:46:48;102333.00;;;7.20
38114;BMP180;23926;53.222;6.354;2023-01-29T07:49:14;102326.00;;;7.30
38114;BMP180;23926;53.222;6.354;2023-01-29T07:51:39;102335.00;;;7.20
38114;BMP180;23926;53.222;6.354;2023-01-29T07:54:04;102336.00;;;7.20
38114;BMP180;23926;53.222;6.354;2023-01-29T07:56:29;102343.00;;;7.20
38114;BMP180;23926;53.222;6.354;2023-01-29T07:58:55;102350.00;;;7.20
38114;BMP180;23926;53.222;6.354;2023-01-29T08:01:20;102341.00;;;7.20
38114;BMP180;23926;53.222;6.354;2023-01-29T08:03:45;102347.00;;;7.20
38114;BMP180;23926;53.222;6.354;2023-01-29T08:06:11;102343.00;;;7.30
38114;BMP180;23926;53.222;6.354;2023-01-29T08:08:36;102351.00;;;7.20
38114;BMP180;23926;53.222;6.354;2023-01-29T08:11:03;102347.00;;;7.20
38114;BMP180;23926;53.222;6.354;2023-01-29T08:13:29;102334.00;;;7.20
38114;BMP180;23926;53.222;6.354;2023-01-29T08:15:57;102333.00;;;7.20
38114;BMP180;23926;53.222;6.354;2023-01-29T08:18:23;102332.00;;;7.20
38114;BMP180;23926;53.222;6.354;2023-01-29T08:20:48;102326.00;;;7.30
38114;BMP180;23926;53.222;6.354;2023-01-29T08:23:14;102332.00;;;7.30
38114;BMP180;23926;53.222;6.354;2023-01-29T08:25:40;102333.00;;;7.20
38114;BMP180;23926;53.222;6.354;2023-01-29T08:28:05;102326.00;;;7.20
38114;BMP180;23926;53.222;6.354;2023-01-29T08:30:31;102330.00;;;7.20
38114;BMP180;23926;53.222;6.354;2023-01-29T08:32:57;102320.00;;;7.10
38114;BMP180;23926;53.222;6.354;2023-01-29T08:35:22;102309.00;;;7.30
38114;BMP180;23926;53.222;6.354;2023-01-29T08:37:54;102311.00;;;7.30
38114;BMP180;23926;53.222;6.354;2023-01-29T08:40:20;102303.00;;;7.30
38114;BMP180;23926;53.222;6.354;2023-01-29T08:42:46;102306.00;;;7.30
38114;BMP180;23926;53.222;6.354;2023-01-29T08:45:11;102308.00;;;7.40
38114;BMP180;23926;53.222;6.354;2023-01-29T08:47:36;102318.00;;;7.40
38114;BMP180;23926;53.222;6.354;2023-01-29T08:50:02;102314.00;;;7.40
38114;BMP180;23926;53.222;6.354;2023-01-29T08:52:27;102306.00;;;7.40
38114;BMP180;23926;53.222;6.354;2023-01-29T08:54:53;102308.00;;;7.40
38114;BMP180;23926;53.222;6.354;2023-01-29T08:57:18;102310.00;;;7.50
38114;BMP180;23926;53.222;6.354;2023-01-29T08:59:43;102301.00;;;7.50
38114;BMP180;23926;53.222;6.354;2023-01-29T09:02:09;102294.00;;;7.50
38114;BMP180;23926;53.222;6.354;2023-01-29T09:04:35;102293.00;;;7.50
38114;BMP180;23926;53.222;6.354;2023-01-29T09:07:00;102295.00;;;7.50
38114;BMP180;23926;53.222;6.354;2023-01-29T09:09:25;102291.00;;;7.50
38114;BMP180;23926;53.222;6.354;2023-01-29T09:11:51;102291.00;;;7.50
38114;BMP180;23926;53.222;6.354;2023-01-29T09:14:16;102286.00;;;7.70
38114;BMP180;23926;53.222;6.354;2023-01-29T09:16:41;102282.00;;;7.60
38114;BMP180;23926;53.222;6.354;2023-01-29T09:19:07;102284.00;;;7.50
38114;BMP180;23926;53.222;6.354;2023-01-29T09:21:32;102287.00;;;7.60
38114;BMP180;23926;53.222;6.354;2023-01-29T09:23:57;102286.00;;;7.70
38114;BMP180;23926;53.222;6.354;2023-01-29T09:26:23;102287.00;;;7.80
38114;BMP180;23926;53.222;6.354;2023-01-29T09:28:48;102288.00;;;7.80
38114;BMP180;23926;53.222;6.354;2023-01-29T09:31:13;102287.00;;;7.80
38114;BMP180;23926;53.222;6.354;2023-01-29T09:33:38;102288.00;;;7.80
38114;BMP180;23926;53.222;6.354;2023-01-29T09:36:04;102286.00;;;7.90
38114;BMP180;23926;53.222;6.354;2023-01-29T09:38:29;102282.00;;;7.90
38114;BMP180;23926;53.222;6.354;2023-01-29T09:46:10;102284.00;;;7.80
38114;BMP180;23926;53.222;6.354;2023-01-29T09:48:39;102282.00;;;7.90
38114;BMP180;23926;53.222;6.354;2023-01-29T09:51:06;102273.00;;;7.90
38114;BMP180;23926;53.222;6.354;2023-01-29T09:53:44;102269.00;;;7.80
38114;BMP180;23926;53.222;6.354;2023-01-29T09:56:11;102276.00;;;7.80
38114;BMP180;23926;53.222;6.354;2023-01-29T09:58:38;102272.00;;;7.90
38114;BMP180;23926;53.222;6.354;2023-01-29T10:01:22;102265.00;;;7.90
38114;BMP180;23926;53.222;6.354;2023-01-29T10:16:52;102265.00;;;7.70
38114;BMP180;23926;53.222;6.354;2023-01-29T10:22:00;102252.00;;;7.70
38114;BMP180;23926;53.222;6.354;2023-01-29T10:26:52;102254.00;;;7.80
38114;BMP180;23926;53.222;6.354;2023-01-29T10:29:18;102255.00;;;7.80
38114;BMP180;23926;53.222;6.354;2023-01-29T10:31:47;102258.00;;;7.80
38114;BMP180;23926;53.222;6.354;2023-01-29T10:34:16;102242.00;;;7.70
38114;BMP180;23926;53.222;6.354;2023-01-29T10:36:46;102240.00;;;7.70
38114;BMP180;23926;53.222;6.354;2023-01-29T10:39:19;102230.00;;;7.80
38114;BMP180;23926;53.222;6.354;2023-01-29T10:41:47;102227.00;;;7.80
38114;BMP180;23926;53.222;6.354;2023-01-29T10:44:22;102216.00;;;7.80
38114;BMP180;23926;53.222;6.354;2023-01-29T10:51:53;102192.00;;;7.80
38114;BMP180;23926;53.222;6.354;2023-01-29T13:57:32;101890.00;;;8.20
38114;BMP180;23926;53.222;6.354;2023-01-29T13:59:57;101886.00;;;8.20
38114;BMP180;23926;53.222;6.354;2023-01-29T14:02:27;101884.00;;;8.20
38114;BMP180;23926;53.222;6.354;2023-01-29T14:10:14;101875.00;;;8.10
38114;BMP180;23926;53.222;6.354;2023-01-29T14:12:40;101872.00;;;8.10
38114;BMP180;23926;53.222;6.354;2023-01-29T14:17:58;101862.00;;;8.00
38114;BMP180;23926;53.222;6.354;2023-01-29T14:34:19;101826.00;;;8.00
38114;BMP180;23926;53.222;6.354;2023-01-29T14:36:45;101834.00;;;8.00
38114;BMP180;23926;53.222;6.354;2023-01-29T14:39:19;101820.00;;;8.00
38114;BMP180;23926;53.222;6.354;2023-01-29T14:41:44;101814.00;;;8.00
38114;BMP180;23926;53.222;6.354;2023-01-29T14:44:45;101824.00;;;8.00
38114;BMP180;23926;53.222;6.354;2023-01-29T14:47:04;101814.00;;;8.00
38114;BMP180;23926;53.222;6.354;2023-01-29T14:52:14;101823.00;;;8.10
38114;BMP180;23926;53.222;6.354;2023-01-29T14:54:39;101821.00;;;8.10
38114;BMP180;23926;53.222;6.354;2023-01-29T14:57:07;101805.00;;;8.00
38114;BMP180;23926;53.222;6.354;2023-01-29T14:59:41;101812.00;;;8.00
38114;BMP180;23926;53.222;6.354;2023-01-29T15:02:13;101805.00;;;8.00
38114;BMP180;23926;53.222;6.354;2023-01-29T15:04:42;101802.00;;;7.90
38114;BMP180;23926;53.222;6.354;2023-01-29T15:09:50;101817.00;;;7.90
38114;BMP180;23926;53.222;6.354;2023-01-29T15:12:35;101804.00;;;7.90
38114;BMP180;23926;53.222;6.354;2023-01-29T15:15:05;101809.00;;;7.90
38114;BMP180;23926;53.222;6.354;2023-01-29T15:17:35;101797.00;;;7.90
38114;BMP180;23926;53.222;6.354;2023-01-29T15:20:04;101793.00;;;7.90
38114;BMP180;23926;53.222;6.354;2023-01-29T15:22:44;101805.00;;;7.90
38114;BMP180;23926;53.222;6.354;2023-01-29T15:25:13;101808.00;;;8.00
38114;BMP180;23926;53.222;6.354;2023-01-29T15:27:45;101796.00;;;7.90
38114;BMP180;23926;53.222;6.354;2023-01-29T15:30:13;101796.00;;;8.00
38114;BMP180;23926;53.222;6.354;2023-01-29T15:32:39;101773.00;;;8.00
38114;BMP180;23926;53.222;6.354;2023-01-29T15:35:50;101788.00;;;8.00
38114;BMP180;23926;53.222;6.354;2023-01-29T15:37:57;101787.00;;;8.10
38114;BMP180;23926;53.222;6.354;2023-01-29T15:40:22;101793.00;;;8.10
38114;BMP180;23926;53.222;6.354;2023-01-29T15:42:48;101785.00;;;8.10
38114;BMP180;23926;53.222;6.354;2023-01-29T15:47:48;101777.00;;;8.20
38114;BMP180;23926;53.222;6.354;2023-01-29T15:50:13;101763.00;;;8.20
38114;BMP180;23926;53.222;6.354;2023-01-29T15:52:39;101773.00;;;8.10
38114;BMP180;23926;53.222;6.354;2023-01-29T15:55:04;101767.00;;;8.10
38114;BMP180;23926;53.222;6.354;2023-01-29T15:57:35;101765.00;;;8.10
38114;BMP180;23926;53.222;6.354;2023-01-29T16:00:02;101757.00;;;8.10
38114;BMP180;23926;53.222;6.354;2023-01-29T16:02:34;101751.00;;;8.10
38114;BMP180;23926;53.222;6.354;2023-01-29T16:05:02;101743.00;;;8.10
38114;BMP180;23926;53.222;6.354;2023-01-29T16:07:27;101730.00;;;8.20
38114;BMP180;23926;53.222;6.354;2023-01-29T16:09:53;101740.00;;;8.20
38114;BMP180;23926;53.222;6.354;2023-01-29T16:12:19;101732.00;;;8.10
38114;BMP180;23926;53.222;6.354;2023-01-29T16:14:44;101729.00;;;8.20
38114;BMP180;23926;53.222;6.354;2023-01-29T16:19:58;101719.00;;;8.10
38114;BMP180;23926;53.222;6.354;2023-01-29T16:22:24;101731.00;;;8.10
38114;BMP180;23926;53.222;6.354;2023-01-29T16:24:49;101722.00;;;8.10
38114;BMP180;23926;53.222;6.354;2023-01-29T16:27:17;101726.00;;;8.10
38114;BMP180;23926;53.222;6.354;2023-01-29T16:29:43;101729.00;;;8.10
38114;BMP180;23926;53.222;6.354;2023-01-29T16:32:08;101723.00;;;8.10
38114;BMP180;23926;53.222;6.354;2023-01-29T16:55:19;101686.00;;;8.00
38114;BMP180;23926;53.222;6.354;2023-01-29T16:57:46;101679.00;;;8.10
38114;BMP180;23926;53.222;6.354;2023-01-29T17:00:17;101684.00;;;8.10
38114;BMP180;23926;53.222;6.354;2023-01-29T17:05:25;101680.00;;;8.10
38114;BMP180;23926;53.222;6.354;2023-01-29T19:06:15;101503.00;;;7.50
38114;BMP180;23926;53.222;6.354;2023-01-29T19:08:41;101480.00;;;7.50
38114;BMP180;23926;53.222;6.354;2023-01-29T19:11:07;101473.00;;;7.60
38114;BMP180;23926;53.222;6.354;2023-01-29T19:16:08;101477.00;;;7.60
38114;BMP180;23926;53.222;6.354;2023-01-29T19:18:34;101476.00;;;7.60
38114;BMP180;23926;53.222;6.354;2023-01-29T19:21:04;101487.00;;;7.60
38114;BMP180;23926;53.222;6.354;2023-01-29T19:26:05;101495.00;;;7.80
38114;BMP180;23926;53.222;6.354;2023-01-29T19:28:30;101495.00;;;7.90
38114;BMP180;23926;53.222;6.354;2023-01-29T19:30:56;101488.00;;;8.00
38114;BMP180;23926;53.222;6.354;2023-01-29T19:33:22;101489.00;;;8.00
38114;BMP180;23926;53.222;6.354;2023-01-29T19:35:47;101474.00;;;8.10
38114;BMP180;23926;53.222;6.354;2023-01-29T19:38:12;101487.00;;;8.10
38114;BMP180;23926;53.222;6.354;2023-01-29T19:40:43;101487.00;;;8.00
38114;BMP180;23926;53.222;6.354;2023-01-29T21:02:12;101401.00;;;8.10
38114;BMP180;23926;53.222;6.354;2023-01-29T22:49:15;101214.00;;;8.60
38114;BMP180;23926;53.222;6.354;2023-01-29T22:51:40;101214.00;;;8.70
38114;BMP180;23926;53.222;6.354;2023-01-29T22:54:05;101215.00;;;8.80
38114;BMP180;23926;53.222;6.354;2023-01-29T22:56:31;101219.00;;;8.70
38114;BMP180;23926;53.222;6.354;2023-01-29T22:58:57;101218.00;;;8.70
38114;BMP180;23926;53.222;6.354;2023-01-29T23:01:24;101218.00;;;8.70
38114;BMP180;23926;53.222;6.354;2023-01-29T23:03:49;101218.00;;;8.70
38114;BMP180;23926;53.222;6.354;2023-01-29T23:06:15;101207.00;;;8.90
38114;BMP180;23926;53.222;6.354;2023-01-29T23:08:40;101190.00;;;8.80
38114;BMP180;23926;53.222;6.354;2023-01-29T23:11:06;101196.00;;;8.80
38114;BMP180;23926;53.222;6.354;2023-01-29T23:13:39;101189.00;;;8.80
38114;BMP180;23926;53.222;6.354;2023-01-29T23:16:04;101190.00;;;8.80
38114;BMP180;23926;53.222;6.354;2023-01-29T23:18:32;101193.00;;;8.80
38114;BMP180;23926;53.222;6.354;2023-01-29T23:20:57;101186.00;;;8.90
38114;BMP180;23926;53.222;6.354;2023-01-29T23:23:22;101173.00;;;9.00
38114;BMP180;23926;53.222;6.354;2023-01-29T23:25:48;101190.00;;;9.00
38114;BMP180;23926;53.222;6.354;2023-01-29T23:28:32;101169.00;;;9.00
38114;BMP180;23926;53.222;6.354;2023-01-29T23:30:57;101173.00;;;9.00
38114;BMP180;23926;53.222;6.354;2023-01-29T23:33:22;101166.00;;;9.10
38114;BMP180;23926;53.222;6.354;2023-01-29T23:35:47;101167.00;;;9.10
38114;BMP180;23926;53.222;6.354;2023-01-29T23:38:13;101172.00;;;9.00
38114;BMP180;23926;53.222;6.354;2023-01-29T23:40:38;101153.00;;;9.10
38114;BMP180;23926;53.222;6.354;2023-01-29T23:43:03;101157.00;;;9.20
38114;BMP180;23926;53.222;6.354;2023-01-29T23:45:29;101143.00;;;9.10
38114;BMP180;23926;53.222;6.354;2023-01-29T23:47:54;101126.00;;;9.10
38114;BMP180;23926;53.222;6.354;2023-01-29T23:50:19;101114.00;;;9.10
38114;BMP180;23926;53.222;6.354;2023-01-29T23:52:44;101101.00;;;9.20
38114;BMP180;23926;53.222;6.354;2023-01-29T23:55:10;101086.00;;;9.30
38114;BMP180;23926;53.222;6.354;2023-01-29T23:57:35;101083.00;;;9.20
